Terminal Aerodrome Forecast
Issued by NWS Twin Cities, MN

Home | Current Version | Previous Version | Graphics & Text | Print | Product List | Glossary On
Versions: 1 2 3 4 5 6 7 8 9 10 11 12 13
000
FTUS43 KMPX 031138
TAFEAU
TAF
KEAU 031138Z 0312/0412 27003KT P6SM OVC025
     FM031600 25004KT P6SM OVC025
     FM032000 15005KT P6SM BKN035
     FM040600 14004KT 6SM -SN OVC020
     FM040900 14006KT 2SM -SN OVC010
      TEMPO 0409/0412 1SM -SN OVC006=

USA.gov is the U.S. government's official web portal to all federal, state and local government web resources and services.